ADDS METAR Data INFO
IDs: Format: Raw Decoded Include TAF

Data at: 2058 UTC 19 Jul 2018

KGEZ 192053Z AUTO 14003KT 10SM CLR 29/15 A2996 RMK AO2 SLP140 T02940150 58015
KGEZ 191953Z AUTO 12008KT 10SM FEW060 29/16 A2998 RMK AO2 SLP146 T02940156
KGEZ 191853Z AUTO 19008KT 10SM SCT055 29/16 A2999 RMK AO2 SLP151 T02890156
KGEZ 191753Z AUTO 13009KT 100V170 10SM SCT055 28/15 A3001 RMK AO2 SLP155 T02830150 10289 20194 56008
KGEZ 191653Z AUTO 12008KT 10SM FEW050 28/16 A3001 RMK AO2 SLP155 T02780161
KGEZ 191553Z AUTO 14010G15KT 10SM CLR 28/16 A3002 RMK AO2 SLP160 T02780161
KGEZ 191453Z AUTO 12007KT 10SM CLR 25/16 A3003 RMK AO2 SLP163 T02500156 50001
KGEZ 191353Z AUTO 12004KT 10SM CLR 25/16 A3004 RMK AO2 SLP167 T02500161
KGEZ 191253Z AUTO 12006KT 10SM CLR 22/16 A3003 RMK AO2 SLP165 T02170156
KGEZ 191153Z AUTO 10003KT 10SM CLR 19/15 A3003 RMK AO2 SLP161 T01940150 10194 20156 53004
KGEZ 191053Z AUTO 09004KT 10SM CLR 16/13 A3002 RMK AO2 SLP161 T01610133
KGEZ 190953Z AUTO 10004KT 10SM CLR 16/13 A3002 RMK AO2 SLP159 T01610133
KGEZ 190853Z AUTO 08006KT 10SM CLR 16/14 A3002 RMK AO2 SLP158 T01610139 55004
KGEZ 190753Z AUTO 08006KT 10SM CLR 17/14 A3001 RMK AO2 SLP157 T01670139
KGEZ 190653Z AUTO 09006KT 10SM CLR 18/14 A3002 RMK AO2 SLP159 T01780144
KGEZ 190553Z AUTO 08006KT 10SM FEW065 18/14 A3003 RMK AO2 SLP162 T01830144 10278 20183 50004
KGEZ 190453Z AUTO 08006KT 10SM BKN065 19/15 A3003 RMK AO2 SLP164 T01890150 403000139
KGEZ 190353Z AUTO 07006KT 10SM CLR 19/16 A3003 RMK AO2 SLP162 T01940156
KGEZ 190253Z AUTO 05005KT 10SM CLR 20/16 A3002 RMK AO2 SLP158 T02000161 53004
KGEZ 190153Z AUTO 03005KT 10SM FEW065 22/17 A3001 RMK AO2 SLP156 T02220167
KGEZ 190053Z AUTO 04004KT 10SM CLR 24/16 A3000 RMK AO2 SLP153 T02440161
KGEZ 182353Z AUTO 03003KT 10SM CLR 28/16 A3000 RMK AO2 SLP154 T02780156 10300 20278 55007
KGEZ 182253Z AUTO 05003KT 10SM CLR 29/14 A3000 RMK AO2 SLP153 T02890139
KGEZ 182153Z AUTO 04004KT 10SM CLR 29/14 A3001 RMK AO2 SLP157 T02940139
KGEZ 182053Z AUTO VRB03KT 10SM FEW060 29/14 A3003 RMK AO2 SLP162 T02940144 58012
KGEZ 181953Z AUTO 04005KT 10SM FEW055 28/16 A3004 RMK AO2 SLP168 T02830156
KGEZ 181853Z AUTO 10006KT 10SM FEW055 29/14 A3006 RMK AO2 SLP172 T02890144
KGEZ 181753Z AUTO 08006KT 10SM CLR 28/16 A3006 RMK AO2 SLP174 T02780156 10278 20167 58006
KGEZ 181653Z AUTO 02005KT 10SM CLR 27/16 A3007 RMK AO2 SLP176 T02670156
KGEZ 181553Z AUTO 00000KT 10SM CLR 26/15 A3009 RMK AO2 SLP182 T02560150
KGEZ 181453Z AUTO 03005KT 10SM CLR 24/16 A3008 RMK AO2 SLP180 T02390156 58003
KGEZ 181353Z AUTO VRB03KT 10SM CLR 22/14 A3008 RMK AO2 SLP181 T02170144
KGEZ 181253Z AUTO 36004KT 10SM CLR 19/14 A3009 RMK AO2 SLP183 T01890139
KGEZ 181153Z AUTO 36003KT 10SM CLR 17/13 A3009 RMK AO2 SLP183 T01670128 10189 20139 53007
KGEZ 181053Z AUTO 35003KT 10SM CLR 14/11 A3008 RMK AO2 SLP182 T01440111
KGEZ 180953Z AUTO 35003KT 10SM CLR 15/12 A3007 RMK AO2 SLP178 T01500117